Time;durP1;ratioP1;P1;durP2;ratioP2;P2;SDS_P1;SDS_P2;PMS_P1;PMS_P2;Temp;Humidity;BMP_temperature;BMP_pressure;BME280_temperature;BME280_humidity;BME280_pressure;Samples;Min_cycle;Max_cycle;Signal;HPM_P1;HPM_P2
2021/12/15 00:01:28;;;;;;;185.40;74.70;;;;;;;1.75;90.38;99480.80;103266;1318;138239;-86
2021/12/15 00:03:55;;;;;;;200.00;77.60;;;;;;;1.74;90.36;99477.22;103349;1319;24270;-86
2021/12/15 00:06:22;;;;;;;202.70;77.70;;;;;;;1.75;90.54;99477.32;103277;1321;138371;-86
2021/12/15 00:09:12;;;;;;;184.30;73.00;;;;;;;1.77;90.65;99477.02;103269;1324;22600;-87
2021/12/15 00:11:40;;;;;;;182.50;71.70;;;;;;;1.78;90.51;99472.16;103406;1318;22732;-87
2021/12/15 00:14:12;;;;;;;188.70;77.10;;;;;;;1.79;90.62;99475.77;103315;1316;138049;-87
2021/12/15 00:16:43;;;;;;;197.20;78.20;;;;;;;1.79;90.56;99478.12;103241;1322;25496;-87
2021/12/15 00:19:10;;;;;;;187.40;71.70;;;;;;;1.75;90.33;99481.35;103087;1326;138339;-87
2021/12/15 00:21:38;;;;;;;172.20;69.00;;;;;;;1.77;90.62;99483.70;103434;1321;23514;-87
2021/12/15 00:24:07;;;;;;;189.10;72.20;;;;;;;1.78;90.66;99483.77;103162;1322;138007;-86
2021/12/15 00:26:35;;;;;;;188.60;73.00;;;;;;;1.79;90.87;99479.37;103376;1316;22603;-87
2021/12/15 00:29:14;;;;;;;193.40;71.10;;;;;;;1.78;90.80;99477.86;103659;1319;24235;-88
2021/12/15 00:31:46;;;;;;;192.00;69.70;;;;;;;1.78;90.90;99472.46;103703;1319;138745;-87
2021/12/15 00:34:14;;;;;;;174.00;67.20;;;;;;;1.79;90.99;99480.59;103357;1318;22721;-88
2021/12/15 00:36:46;;;;;;;174.50;67.90;;;;;;;1.78;90.73;99483.59;103478;1320;137961;-87
2021/12/15 00:39:19;;;;;;;171.90;66.20;;;;;;;1.77;90.97;99484.60;103418;1319;22659;-87
2021/12/15 00:41:47;;;;;;;190.30;72.10;;;;;;;1.75;90.86;99483.02;103130;1321;138164;-88
2021/12/15 00:44:18;;;;;;;193.70;69.90;;;;;;;1.75;91.18;99487.15;103405;1326;22585;-88
2021/12/15 00:46:45;;;;;;;184.80;68.60;;;;;;;1.75;91.11;99493.90;103355;1319;22640;-87
2021/12/15 00:49:12;;;;;;;186.80;70.00;;;;;;;1.76;91.33;99495.58;102928;1320;138014;-87
2021/12/15 00:51:42;;;;;;;181.60;68.10;;;;;;;1.77;91.41;99493.34;103133;1319;22603;-86
2021/12/15 00:54:13;;;;;;;200.50;71.70;;;;;;;1.78;91.53;99489.81;103490;1318;139034;-86
2021/12/15 00:56:41;;;;;;;190.80;69.20;;;;;;;1.78;91.46;99489.44;103238;1319;22599;-86
2021/12/15 00:59:10;;;;;;;172.20;66.80;;;;;;;1.81;91.31;99497.17;103479;1318;23264;-87
2021/12/15 01:01:40;;;;;;;183.20;66.10;;;;;;;1.82;91.46;99492.38;103263;1323;137851;-87
2021/12/15 01:04:10;;;;;;;186.60;70.40;;;;;;;1.85;91.66;99493.90;103428;1318;22650;-87
2021/12/15 01:06:39;;;;;;;185.60;68.40;;;;;;;1.87;91.73;99490.41;103470;1321;138547;-88
2021/12/15 01:09:15;;;;;;;184.50;66.50;;;;;;;1.89;91.64;99489.15;103283;1320;22564;-88
2021/12/15 01:20:33;;;;;;;168.30;67.40;;;;;;;1.94;91.60;99477.36;103269;1323;138493;-88
2021/12/15 01:23:05;;;;;;;179.60;66.00;;;;;;;1.97;91.64;99479.09;103370;1322;31323;-88
2021/12/15 01:25:39;;;;;;;190.70;67.80;;;;;;;2.00;91.42;99480.38;103706;1319;139150;-87
2021/12/15 01:28:07;;;;;;;176.90;70.50;;;;;;;2.01;91.22;99485.08;103179;1325;25377;-88
2021/12/15 01:30:40;;;;;;;180.20;68.50;;;;;;;2.01;91.37;99485.77;103442;1318;139937;-88
2021/12/15 01:33:10;;;;;;;195.10;71.10;;;;;;;2.01;91.24;99484.70;103455;1322;22644;-88
2021/12/15 01:35:41;;;;;;;191.60;69.00;;;;;;;2.01;90.91;99485.27;103623;1324;22760;-88
2021/12/15 01:38:09;;;;;;;189.40;69.40;;;;;;;2.01;91.14;99483.05;103355;1326;138169;-88
2021/12/15 01:40:40;;;;;;;183.00;68.60;;;;;;;2.05;91.37;99484.41;103341;1326;22665;-88
2021/12/15 01:43:34;;;;;;;176.60;68.90;;;;;;;2.10;91.58;99488.24;103372;1325;137707;-89
2021/12/15 01:48:59;;;;;;;189.20;67.20;;;;;;;2.17;91.35;99486.98;103432;1320;139098;-87
2021/12/15 01:51:28;;;;;;;;;;;;;;;2.21;91.43;99489.74;103486;1324;26597;-89
2021/12/15 01:54:02;;;;;;;173.90;65.40;;;;;;;2.23;91.30;99486.98;103957;1321;22609;-88
2021/12/15 01:56:36;;;;;;;172.40;65.60;;;;;;;2.22;91.17;99484.55;103465;1324;138366;-88
2021/12/15 01:59:05;;;;;;;186.60;68.90;;;;;;;2.23;91.35;99482.36;103538;1323;23962;-87
2021/12/15 02:01:32;;;;;;;183.70;68.10;;;;;;;2.24;91.26;99479.52;103488;1320;139035;-88
2021/12/15 02:03:59;;;;;;;176.50;66.30;;;;;;;2.27;90.98;99479.77;103726;1319;24320;-86
2021/12/15 02:06:27;;;;;;;181.80;68.60;;;;;;;2.27;91.15;99479.55;103293;1319;138701;-88
2021/12/15 02:08:55;;;;;;;170.90;66.00;;;;;;;2.29;91.05;99480.63;103606;1322;22651;-87
2021/12/15 02:11:22;;;;;;;185.70;69.10;;;;;;;2.28;90.93;99485.88;103733;1322;22763;-88
2021/12/15 02:13:49;;;;;;;193.50;68.00;;;;;;;2.28;90.78;99492.20;103375;1318;138787;-87
2021/12/15 02:16:18;;;;;;;185.70;68.10;;;;;;;2.27;90.79;99489.05;103277;1320;24361;-87
2021/12/15 02:18:46;;;;;;;176.70;65.90;;;;;;;2.28;90.97;99489.99;103598;1319;138391;-88
2021/12/15 02:21:19;;;;;;;176.80;66.50;;;;;;;2.27;90.98;99489.09;103633;1323;22569;-88
2021/12/15 02:23:53;;;;;;;186.20;66.60;;;;;;;2.28;90.95;99490.97;103534;1322;23513;-88
2021/12/15 02:26:24;;;;;;;182.10;66.50;;;;;;;2.25;90.72;99490.94;103373;1325;138690;-88
2021/12/15 02:28:57;;;;;;;170.70;66.30;;;;;;;2.28;90.87;99488.92;103552;1322;22769;-88
2021/12/15 02:31:56;;;;;;;178.70;66.90;;;;;;;2.30;90.88;99489.90;103380;1326;137861;-89
2021/12/15 02:39:53;;;;;;;183.60;68.50;;;;;;;2.26;90.64;99505.31;103534;1322;22717;-88
2021/12/15 02:42:23;;;;;;;174.30;62.80;;;;;;;2.27;90.52;99499.84;103148;1325;138362;-88
2021/12/15 02:44:50;;;;;;;173.00;65.80;;;;;;;2.25;90.56;99498.92;103435;1323;30312;-87
2021/12/15 02:47:22;;;;;;;183.70;65.20;;;;;;;2.21;90.59;99496.54;103478;1322;22622;-88
2021/12/15 02:49:51;;;;;;;182.30;65.10;;;;;;;2.17;90.62;99498.40;103102;1322;138594;-88
2021/12/15 02:52:21;;;;;;;186.80;63.80;;;;;;;2.13;90.72;99499.84;103380;1324;24192;-87
2021/12/15 02:54:49;;;;;;;171.70;65.30;;;;;;;2.14;90.83;99505.48;103320;1326;138954;-89
2021/12/15 02:57:23;;;;;;;166.90;65.30;;;;;;;2.12;90.78;99511.96;103612;1319;24250;-88
2021/12/15 03:00:04;;;;;;;176.80;66.20;;;;;;;2.10;91.00;99516.32;103528;1319;22719;-88
2021/12/15 03:05:30;;;;;;;165.90;61.00;;;;;;;2.05;91.05;99528.17;103584;1321;30584;-89
2021/12/15 03:16:16;;;;;;;166.10;61.00;;;;;;;2.02;91.52;99526.70;103633;1318;23240;-87
2021/12/15 03:18:43;;;;;;;153.40;56.90;;;;;;;2.03;91.53;99528.02;103595;1322;138534;-88
2021/12/15 03:21:15;;;;;;;148.70;56.60;;;;;;;2.06;91.55;99533.75;103247;1323;25355;-88
2021/12/15 03:24:03;;;;;;;146.50;56.70;;;;;;;2.07;91.57;99528.44;103578;1323;25430;-88
2021/12/15 03:27:14;;;;;;;137.20;57.00;;;;;;;2.07;91.63;99523.75;103753;1318;138592;-88
2021/12/15 03:37:54;;;;;;;159.40;56.90;;;;;;;2.05;91.66;99542.14;103375;1324;124429;-88
2021/12/15 03:40:23;;;;;;;159.30;58.00;;;;;;;2.01;91.45;99543.45;103787;1316;24379;-88
2021/12/15 03:43:01;;;;;;;144.60;59.40;;;;;;;1.99;91.81;99538.83;103407;1323;138552;-88
2021/12/15 03:45:48;;;;;;;145.70;55.80;;;;;;;2.01;92.00;99538.60;103608;1318;22640;-87
2021/12/15 03:48:20;;;;;;;152.60;58.00;;;;;;;2.02;92.02;99538.11;103520;1323;25242;-88
2021/12/15 03:50:50;;;;;;;151.80;56.70;;;;;;;2.00;92.16;99534.61;103096;1325;137771;-89
2021/12/15 03:53:20;;;;;;;152.50;58.10;;;;;;;2.02;92.06;99544.52;103655;1321;22552;-88
2021/12/15 03:55:47;;;;;;;142.30;53.60;;;;;;;2.04;91.88;99547.45;103738;1320;138558;-88
2021/12/15 03:58:15;;;;;;;135.70;55.60;;;;;;;2.03;91.79;99552.95;103560;1324;22586;-89
2021/12/15 04:00:52;;;;;;;143.80;53.60;;;;;;;2.03;92.00;99562.42;103561;1318;138368;-88
2021/12/15 04:03:28;;;;;;;141.70;53.80;;;;;;;2.01;91.80;99566.00;103792;1319;24132;-88
2021/12/15 04:05:58;;;;;;;156.30;58.30;;;;;;;1.99;92.06;99563.48;103447;1325;22653;-87
2021/12/15 04:08:28;;;;;;;155.60;58.30;;;;;;;2.00;92.30;99564.30;103250;1325;232985;-91
2021/12/15 04:10:58;;;;;;;143.50;55.30;;;;;;;2.03;92.36;99561.48;103570;1325;24271;-90
2021/12/15 04:13:26;;;;;;;155.00;56.90;;;;;;;2.09;92.51;99565.19;103756;1324;138299;-89
2021/12/15 04:15:56;;;;;;;155.40;57.40;;;;;;;2.14;92.61;99563.09;103309;1321;24372;-89
2021/12/15 04:18:25;;;;;;;165.00;58.30;;;;;;;2.17;92.43;99569.31;103466;1319;22779;-88
2021/12/15 04:20:53;;;;;;;153.40;57.00;;;;;;;2.21;92.46;99566.56;103264;1325;138374;-89
2021/12/15 04:23:25;;;;;;;145.90;55.70;;;;;;;2.27;92.56;99561.83;103800;1318;24286;-89
2021/12/15 04:25:55;;;;;;;150.30;58.20;;;;;;;2.32;92.60;99557.36;103468;1325;138077;-88
2021/12/15 04:28:33;;;;;;;149.80;55.30;;;;;;;2.36;92.13;99560.40;103485;1318;22600;-88
2021/12/15 04:31:08;;;;;;;148.00;56.00;;;;;;;2.35;92.02;99562.21;103321;1322;138473;-88
2021/12/15 04:33:57;;;;;;;154.40;58.20;;;;;;;2.36;92.05;99564.29;103606;1326;22671;-87
2021/12/15 04:36:30;;;;;;;154.40;57.20;;;;;;;2.38;91.90;99564.06;103535;1325;24292;-88
2021/12/15 04:38:59;;;;;;;149.30;54.90;;;;;;;2.38;91.89;99565.30;103648;1321;137825;-89
2021/12/15 04:41:29;;;;;;;150.40;57.10;;;;;;;2.35;91.81;99564.90;103111;1325;22696;-89
2021/12/15 04:43:59;;;;;;;159.10;59.20;;;;;;;2.33;91.70;99569.80;103354;1319;138215;-89
2021/12/15 04:46:40;;;;;;;145.50;56.80;;;;;;;2.32;91.78;99572.55;103579;1323;22804;-87
2021/12/15 04:49:11;;;;;;;154.10;56.60;;;;;;;2.34;91.94;99574.85;103375;1323;138465;-88
2021/12/15 04:51:38;;;;;;;150.20;58.40;;;;;;;2.35;91.83;99572.84;103561;1325;23643;-88
2021/12/15 04:54:09;;;;;;;147.30;60.50;;;;;;;2.35;91.97;99575.11;103509;1321;23651;-87
2021/12/15 04:56:37;;;;;;;159.40;60.00;;;;;;;2.35;91.98;99574.27;103310;1321;138067;-89
2021/12/15 04:59:05;;;;;;;168.40;62.90;;;;;;;2.38;92.10;99576.39;103160;1325;23619;-89
2021/12/15 05:01:35;;;;;;;158.50;61.50;;;;;;;2.40;91.80;99579.25;103373;1324;137117;-89
2021/12/15 05:04:03;;;;;;;148.60;56.70;;;;;;;2.40;91.87;99581.33;103834;1319;22603;-89
2021/12/15 05:06:32;;;;;;;158.10;61.20;;;;;;;2.41;91.82;99580.70;103439;1323;137856;-88
2021/12/15 05:09:00;;;;;;;151.90;57.60;;;;;;;2.39;91.70;99585.84;103453;1319;23428;-88
2021/12/15 05:11:27;;;;;;;150.70;53.60;;;;;;;2.37;91.81;99587.45;103479;1322;22683;-88
2021/12/15 05:13:58;;;;;;;152.40;57.00;;;;;;;2.36;91.69;99587.88;103506;1325;138372;-89
2021/12/15 05:16:25;;;;;;;154.70;56.50;;;;;;;2.38;91.98;99593.77;103523;1325;22746;-87
2021/12/15 05:18:52;;;;;;;148.20;55.10;;;;;;;2.39;91.99;99590.83;103702;1319;137943;-89
2021/12/15 05:21:22;;;;;;;157.40;58.90;;;;;;;2.39;92.03;99590.63;103976;1322;22599;-87
2021/12/15 05:23:55;;;;;;;158.80;58.40;;;;;;;2.40;91.98;99594.51;103756;1322;24280;-90
2021/12/15 05:26:25;;;;;;;151.30;56.60;;;;;;;2.40;91.80;99589.57;103633;1318;138401;-89
2021/12/15 05:28:54;;;;;;;151.40;54.90;;;;;;;2.40;91.77;99588.35;103588;1318;22731;-89
2021/12/15 05:31:21;;;;;;;134.50;55.60;;;;;;;2.38;91.74;99585.30;103674;1321;137696;-88
2021/12/15 05:33:50;;;;;;;150.60;56.70;;;;;;;2.37;91.90;99588.34;103467;1321;25335;-88
2021/12/15 05:36:18;;;;;;;149.90;56.60;;;;;;;2.37;91.98;99587.58;103381;1319;22830;-88
2021/12/15 05:38:49;;;;;;;154.10;56.00;;;;;;;2.38;91.92;99585.23;103553;1319;138805;-89
2021/12/15 05:41:17;;;;;;;144.50;53.80;;;;;;;2.39;91.98;99590.48;103229;1323;25336;-89
2021/12/15 05:43:44;;;;;;;132.60;53.60;;;;;;;2.39;91.99;99587.61;103450;1318;137916;-87
2021/12/15 05:46:12;;;;;;;142.10;55.40;;;;;;;2.38;92.17;99586.56;103854;1323;22655;-89
2021/12/15 05:48:42;;;;;;;139.70;53.80;;;;;;;2.38;92.01;99589.83;103412;1318;139782;-89
2021/12/15 05:51:12;;;;;;;134.90;53.60;;;;;;;2.38;91.84;99595.89;103775;1316;22631;-89
2021/12/15 05:53:40;;;;;;;137.50;52.10;;;;;;;2.40;92.13;99595.54;103507;1323;24445;-88
2021/12/15 05:56:08;;;;;;;141.60;52.60;;;;;;;2.41;91.99;99600.43;103668;1319;138380;-89
2021/12/15 05:58:41;;;;;;;136.20;53.70;;;;;;;2.42;92.18;99605.71;103780;1318;25393;-89
2021/12/15 06:01:08;;;;;;;133.90;48.80;;;;;;;2.43;91.99;99608.44;103250;1323;138975;-88
2021/12/15 06:03:37;;;;;;;;;;;;;;;2.45;91.90;99610.72;103241;1326;22573;-90
2021/12/15 06:06:05;;;;;;;128.70;49.20;;;;;;;2.46;92.02;99612.23;103519;1322;23069;-87
2021/12/15 06:08:34;;;;;;;130.40;52.80;;;;;;;2.44;91.85;99611.02;103630;1318;138072;-88
2021/12/15 06:11:02;;;;;;;128.20;50.10;;;;;;;2.43;92.03;99609.75;103454;1321;25301;-88
2021/12/15 06:13:32;;;;;;;125.80;48.70;;;;;;;2.42;91.87;99608.22;103442;1326;138681;-88
2021/12/15 06:16:00;;;;;;;128.00;51.00;;;;;;;2.42;91.97;99613.94;103312;1322;23636;-89
2021/12/15 06:18:29;;;;;;;134.10;50.40;;;;;;;2.44;91.99;99612.97;103606;1319;25239;-88
2021/12/15 06:20:57;;;;;;;133.50;48.10;;;;;;;2.43;92.00;99620.66;103302;1319;137636;-89
2021/12/15 06:23:24;;;;;;;136.30;48.20;;;;;;;2.40;91.62;99626.16;103420;1326;22583;-88
2021/12/15 06:26:00;;;;;;;134.60;48.50;;;;;;;2.38;92.00;99624.07;103485;1318;138343;-89
2021/12/15 06:28:30;;;;;;;124.20;49.30;;;;;;;2.38;92.05;99622.23;103648;1318;25803;-88
2021/12/15 06:30:58;;;;;;;130.60;48.10;;;;;;;2.41;91.94;99627.58;103752;1318;138629;-88
2021/12/15 06:33:27;;;;;;;130.90;49.80;;;;;;;2.42;92.18;99622.10;103612;1323;24351;-88
2021/12/15 06:35:58;;;;;;;137.00;50.80;;;;;;;2.43;92.31;99622.41;103636;1323;22589;-88
2021/12/15 06:38:29;;;;;;;135.70;51.40;;;;;;;2.44;92.08;99623.05;102886;1326;139068;-88
2021/12/15 06:40:58;;;;;;;126.70;49.80;;;;;;;2.44;91.83;99627.86;103474;1322;27422;-88
2021/12/15 06:43:26;;;;;;;126.90;49.40;;;;;;;2.46;92.09;99626.12;103278;1323;138039;-88
2021/12/15 06:46:14;;;;;;;132.70;50.80;;;;;;;2.45;92.06;99634.75;103566;1319;25367;-88
2021/12/15 06:59:45;;;;;;;126.00;48.90;;;;;;;2.47;92.25;99653.08;103619;1319;22632;-87
2021/12/15 07:02:14;;;;;;;134.50;49.80;;;;;;;2.45;92.05;99651.79;103276;1322;138192;-87
2021/12/15 07:04:55;;;;;;;135.60;52.50;;;;;;;2.44;92.08;99656.56;103579;1320;22580;-88
2021/12/15 07:07:22;;;;;;;135.60;51.50;;;;;;;2.45;92.10;99656.70;103406;1318;138652;-87
2021/12/15 07:09:49;;;;;;;146.30;53.60;;;;;;;2.46;92.05;99658.73;103267;1323;24250;-87
2021/12/15 07:12:17;;;;;;;135.20;50.60;;;;;;;2.47;92.19;99663.42;103184;1322;25365;-88
2021/12/15 07:14:44;;;;;;;152.00;56.80;;;;;;;2.47;92.07;99662.38;103214;1322;138892;-87
2021/12/15 07:17:19;;;;;;;153.00;56.60;;;;;;;2.49;92.34;99661.48;103301;1319;24444;-87
2021/12/15 07:22:44;;;;;;;131.80;52.70;;;;;;;2.56;92.32;99666.21;103222;1319;25114;-88
2021/12/15 07:25:14;;;;;;;134.00;53.30;;;;;;;2.58;92.36;99673.45;102984;1324;138760;-88
2021/12/15 07:27:42;;;;;;;154.10;58.50;;;;;;;2.60;92.53;99674.96;103453;1319;22637;-89
2021/12/15 07:30:11;;;;;;;146.00;54.40;;;;;;;2.63;92.53;99678.73;103515;1322;22612;-89
2021/12/15 07:32:38;;;;;;;143.90;53.80;;;;;;;2.67;92.48;99679.78;103409;1316;138701;-89
2021/12/15 07:35:07;;;;;;;140.60;51.30;;;;;;;2.69;92.30;99679.39;103478;1321;24687;-89
2021/12/15 07:37:34;;;;;;;136.90;51.10;;;;;;;2.68;92.12;99682.40;103398;1319;137864;-89
2021/12/15 07:40:06;;;;;;;148.20;52.30;;;;;;;2.66;92.08;99686.63;103699;1319;22599;-89
2021/12/15 07:42:41;;;;;;;132.70;50.00;;;;;;;2.68;92.23;99685.48;103233;1326;22821;-88
2021/12/15 07:45:11;;;;;;;133.60;49.10;;;;;;;2.68;92.25;99683.65;103198;1321;138170;-88
2021/12/15 07:47:38;;;;;;;122.70;49.20;;;;;;;2.69;92.29;99686.07;103627;1320;22764;-90
2021/12/15 07:50:06;;;;;;;128.00;50.60;;;;;;;2.70;92.44;99690.61;103035;1325;138094;-89
2021/12/15 07:52:33;;;;;;;138.10;52.30;;;;;;;2.71;92.52;99692.80;103490;1319;24309;-88
2021/12/15 07:55:00;;;;;;;140.20;52.50;;;;;;;2.74;92.45;99700.61;103638;1316;138880;-89
2021/12/15 07:57:29;;;;;;;135.70;50.50;;;;;;;2.75;92.26;99708.17;103789;1319;22642;-91
2021/12/15 07:59:59;;;;;;;125.10;50.90;;;;;;;2.75;92.25;99711.77;103472;1320;25279;-90
2021/12/15 08:02:26;;;;;;;139.00;50.90;;;;;;;2.78;92.53;99718.05;103401;1318;138354;-89
2021/12/15 08:04:53;;;;;;;143.50;54.10;;;;;;;2.79;92.51;99715.96;103601;1324;23281;-90
2021/12/15 08:07:21;;;;;;;136.40;50.40;;;;;;;2.79;92.35;99719.73;103668;1316;138609;-89
2021/12/15 08:09:49;;;;;;;137.80;50.00;;;;;;;2.82;92.51;99717.28;103822;1321;25399;-90
2021/12/15 08:12:17;;;;;;;130.10;49.40;;;;;;;2.85;92.55;99717.63;103434;1322;25354;-88
2021/12/15 08:14:45;;;;;;;138.00;51.80;;;;;;;2.88;92.56;99719.55;103232;1324;138329;-90
2021/12/15 08:17:12;;;;;;;148.10;55.80;;;;;;;2.90;92.65;99725.45;103649;1323;22632;-90
2021/12/15 08:19:39;;;;;;;138.70;53.20;;;;;;;2.95;92.83;99731.55;103714;1319;138701;-90
2021/12/15 08:22:06;;;;;;;132.10;48.30;;;;;;;3.00;92.58;99733.14;103363;1316;22868;-90
2021/12/15 08:24:34;;;;;;;120.20;47.40;;;;;;;3.01;92.34;99732.60;103338;1318;23375;-90
2021/12/15 08:27:01;;;;;;;142.90;50.50;;;;;;;3.04;92.24;99738.66;103681;1325;138238;-89
2021/12/15 08:29:28;;;;;;;151.20;53.80;;;;;;;3.05;92.20;99734.89;103371;1324;22622;-90
2021/12/15 08:31:56;;;;;;;138.90;50.30;;;;;;;3.06;92.17;99736.45;102959;1321;138382;-91
2021/12/15 08:34:23;;;;;;;140.10;54.10;;;;;;;3.08;92.26;99734.60;103449;1323;24458;-88
2021/12/15 08:36:52;;;;;;;132.10;51.10;;;;;;;3.11;92.20;99736.65;103478;1319;138649;-90
2021/12/15 08:39:19;;;;;;;146.90;51.10;;;;;;;3.11;92.25;99742.17;103810;1323;22630;-90
2021/12/15 08:41:48;;;;;;;157.00;57.10;;;;;;;3.10;92.08;99740.64;103371;1324;22655;-90
2021/12/15 08:44:16;;;;;;;145.80;52.10;;;;;;;3.10;92.00;99744.46;103141;1319;139007;-90
2021/12/15 08:46:46;;;;;;;145.60;48.20;;;;;;;3.08;91.82;99748.56;103471;1325;22594;-90
2021/12/15 08:49:18;;;;;;;143.00;50.70;;;;;;;3.06;91.86;99747.01;103594;1325;138124;-89
2021/12/15 08:51:46;;;;;;;144.70;50.60;;;;;;;3.05;91.92;99747.30;103584;1323;22840;-90
2021/12/15 08:54:16;;;;;;;160.20;51.80;;;;;;;3.03;92.17;99748.79;103006;1326;25831;-90
2021/12/15 08:56:45;;;;;;;141.10;49.50;;;;;;;3.03;92.18;99754.36;103401;1319;138403;-90
2021/12/15 08:59:14;;;;;;;148.50;51.20;;;;;;;3.03;92.07;99754.83;103246;1318;22576;-89
2021/12/15 09:01:43;;;;;;;145.40;49.80;;;;;;;3.04;92.27;99758.71;103539;1323;138750;-90
2021/12/15 09:04:11;;;;;;;;;;;;;;;3.04;92.32;99761.60;103712;1319;22644;-89
2021/12/15 09:06:39;;;;;;;155.20;50.60;;;;;;;3.03;92.34;99759.48;103117;1321;24290;-90
2021/12/15 09:09:09;;;;;;;143.20;48.40;;;;;;;3.03;92.33;99760.76;103189;1319;138349;-91
2021/12/15 09:11:37;;;;;;;139.90;50.20;;;;;;;3.04;92.40;99752.28;103421;1319;22604;-89
2021/12/15 09:14:06;;;;;;;132.00;48.50;;;;;;;3.04;92.32;99754.91;103054;1325;138162;-90
2021/12/15 09:16:35;;;;;;;145.30;53.00;;;;;;;3.03;92.51;99755.71;103185;1324;23634;-90
2021/12/15 09:19:04;;;;;;;148.40;50.20;;;;;;;3.03;92.61;99757.36;104070;1318;138428;-89
2021/12/15 09:21:34;;;;;;;132.40;49.30;;;;;;;3.04;92.65;99760.63;103840;1322;25450;-89
2021/12/15 09:24:04;;;;;;;124.90;49.20;;;;;;;3.07;92.60;99761.98;103791;1319;22638;-89
2021/12/15 09:26:32;;;;;;;119.80;46.90;;;;;;;3.08;92.53;99754.38;103820;1319;138005;-90
2021/12/15 09:29:01;;;;;;;128.10;47.90;;;;;;;3.08;92.67;99754.88;103506;1319;22648;-89
2021/12/15 09:31:28;;;;;;;115.80;44.90;;;;;;;3.08;92.50;99749.17;103664;1320;138332;-89
2021/12/15 09:33:56;;;;;;;110.80;44.30;;;;;;;3.08;92.51;99747.85;103267;1322;22921;-89
2021/12/15 09:36:25;;;;;;;108.80;44.40;;;;;;;3.12;92.65;99748.02;103133;1322;22583;-90
2021/12/15 09:38:58;;;;;;;121.60;46.70;;;;;;;3.15;92.72;99740.51;102823;1322;138839;-89
2021/12/15 09:41:27;;;;;;;112.80;46.60;;;;;;;3.18;92.69;99738.89;103234;1325;24485;-89
2021/12/15 09:43:56;;;;;;;118.50;49.70;;;;;;;3.23;92.81;99728.36;103389;1324;138408;-90
2021/12/15 09:46:35;;;;;;;113.90;48.30;;;;;;;3.29;92.78;99721.95;103449;1322;23840;-89
2021/12/15 09:57:36;;;;;;;108.90;46.40;;;;;;;3.50;92.96;99714.99;103377;1318;138354;-88
2021/12/15 10:02:58;;;;;;;108.00;47.00;;;;;;;3.59;92.73;99717.25;103197;1320;138422;-88
2021/12/15 10:05:40;;;;;;;116.70;45.40;;;;;;;3.61;92.70;99720.38;103405;1324;25239;-87
2021/12/15 10:19:43;;;;;;;98.10;41.80;;;;;;;3.83;92.13;99723.48;103408;1319;137645;-89
2021/12/15 10:22:42;;;;;;;89.40;40.80;;;;;;;3.84;92.03;99719.52;103601;1318;22601;-89
2021/12/15 10:25:37;;;;;;;95.90;42.70;;;;;;;3.86;91.72;99719.65;103210;1325;138807;-89
2021/12/15 10:28:11;;;;;;;88.70;40.40;;;;;;;3.88;91.74;99717.81;103438;1319;22679;-88
2021/12/15 10:30:50;;;;;;;79.50;36.50;;;;;;;3.87;91.90;99717.89;103447;1319;23227;-87
2021/12/15 10:33:20;;;;;;;98.70;41.00;;;;;;;3.84;91.67;99722.22;103415;1316;137742;-89
2021/12/15 10:35:49;;;;;;;85.90;41.80;;;;;;;3.83;91.72;99717.34;103664;1324;22669;-89
2021/12/15 10:38:29;;;;;;;85.40;36.80;;;;;;;3.84;91.82;99711.57;103255;1319;138464;-91
2021/12/15 10:41:26;;;;;;;87.40;38.00;;;;;;;3.87;92.00;99706.41;103497;1325;24230;-89
2021/12/15 10:44:00;;;;;;;84.10;36.40;;;;;;;3.85;91.63;99702.68;103838;1322;137970;-90
2021/12/15 10:46:30;;;;;;;94.80;39.40;;;;;;;3.85;91.79;99703.09;103825;1318;23490;-90
2021/12/15 10:48:58;;;;;;;83.40;37.00;;;;;;;3.86;92.02;99705.64;103423;1318;22668;-90
2021/12/15 10:51:42;;;;;;;82.50;36.00;;;;;;;3.88;91.88;99698.93;103432;1318;138355;-91
2021/12/15 10:54:30;;;;;;;79.70;35.50;;;;;;;3.91;91.92;99693.04;103155;1319;22602;-90
2021/12/15 10:57:11;;;;;;;81.30;39.00;;;;;;;3.94;92.10;99689.35;103308;1325;137809;-89
2021/12/15 10:59:44;;;;;;;83.70;38.80;;;;;;;3.96;92.10;99691.04;103473;1323;22590;-90
2021/12/15 11:02:17;;;;;;;85.40;37.40;;;;;;;3.97;92.04;99696.32;103515;1322;138711;-89
2021/12/15 11:04:57;;;;;;;83.40;38.10;;;;;;;3.99;91.86;99694.09;103388;1326;22719;-90
2021/12/15 11:07:34;;;;;;;89.60;40.40;;;;;;;4.01;91.78;99694.33;103333;1321;138345;-90
2021/12/15 11:10:10;;;;;;;87.70;38.10;;;;;;;4.03;92.10;99694.96;103490;1326;24439;-91
2021/12/15 11:12:46;;;;;;;91.10;39.40;;;;;;;4.01;91.66;99696.27;103482;1323;25343;-91
2021/12/15 11:15:23;;;;;;;98.70;41.10;;;;;;;3.94;91.39;99687.98;103393;1316;138177;-90
2021/12/15 11:17:53;;;;;;;90.20;38.90;;;;;;;3.95;91.61;99681.27;103331;1318;22575;-90
2021/12/15 11:20:46;;;;;;;87.50;38.60;;;;;;;3.95;91.73;99679.66;103390;1323;137987;-90
2021/12/15 11:23:16;;;;;;;97.30;42.60;;;;;;;3.94;91.80;99684.31;103730;1316;22705;-90
2021/12/15 11:25:58;;;;;;;105.50;41.40;;;;;;;3.94;91.93;99686.19;103309;1318;137993;-89
2021/12/15 11:28:29;;;;;;;91.90;39.10;;;;;;;3.95;91.75;99687.58;103354;1319;22590;-89
2021/12/15 11:31:01;;;;;;;97.60;42.30;;;;;;;3.96;91.85;99686.01;103453;1319;22737;-90
2021/12/15 11:33:37;;;;;;;97.50;40.90;;;;;;;3.98;91.78;99683.95;103477;1319;137582;-90
2021/12/15 11:36:04;;;;;;;103.80;42.70;;;;;;;4.00;92.03;99680.20;103299;1316;24324;-90
2021/12/15 11:38:36;;;;;;;114.10;47.80;;;;;;;4.03;92.11;99676.49;103541;1322;138208;-90
2021/12/15 11:41:30;;;;;;;106.50;45.40;;;;;;;4.07;92.17;99675.77;103720;1323;26596;-88
2021/12/15 11:44:02;;;;;;;107.10;45.00;;;;;;;4.10;91.81;99677.05;103476;1322;138484;-90
2021/12/15 11:46:29;;;;;;;106.30;44.50;;;;;;;4.10;91.61;99672.98;103685;1323;24313;-90
2021/12/15 11:49:05;;;;;;;105.30;45.20;;;;;;;4.10;91.70;99669.34;103583;1318;25509;-89
2021/12/15 11:51:54;;;;;;;113.20;43.00;;;;;;;4.10;91.66;99671.66;103748;1318;137971;-90
2021/12/15 11:54:29;;;;;;;105.40;44.00;;;;;;;4.08;91.43;99676.02;103866;1320;22754;-89
2021/12/15 11:56:58;;;;;;;101.50;40.40;;;;;;;4.05;91.36;99674.73;103273;1321;138405;-89
2021/12/15 11:59:33;;;;;;;115.40;44.60;;;;;;;4.04;91.28;99670.47;103592;1319;23980;-90
2021/12/15 12:02:22;;;;;;;101.50;43.40;;;;;;;4.03;91.49;99677.59;103175;1322;138577;-89
2021/12/15 12:04:56;;;;;;;120.40;45.10;;;;;;;3.94;90.82;99677.20;103674;1319;23934;-89
2021/12/15 12:07:41;;;;;;;128.40;44.80;;;;;;;3.87;91.09;99673.88;103051;1320;280333;-90
2021/12/15 12:10:17;;;;;;;109.10;43.00;;;;;;;3.86;91.31;99675.66;103587;1323;22608;-88
2021/12/15 12:12:53;;;;;;;118.20;44.40;;;;;;;3.85;91.43;99676.13;103320;1318;24323;-88
2021/12/15 12:15:27;;;;;;;105.10;40.50;;;;;;;3.87;91.75;99673.95;103469;1320;137918;-88
2021/12/15 12:18:03;;;;;;;120.60;41.90;;;;;;;3.89;91.92;99675.72;103358;1319;25242;-88
2021/12/15 12:20:36;;;;;;;119.50;43.10;;;;;;;3.89;92.01;99675.52;103532;1316;138788;-88
2021/12/15 12:23:07;;;;;;;118.80;40.80;;;;;;;3.91;91.95;99678.31;103226;1319;22785;-88
2021/12/15 12:25:38;;;;;;;114.70;42.00;;;;;;;3.92;91.98;99673.93;103354;1323;138527;-88
2021/12/15 12:28:09;;;;;;;126.10;44.40;;;;;;;3.95;92.25;99670.52;103426;1318;24699;-88
2021/12/15 12:30:40;;;;;;;123.50;45.60;;;;;;;3.96;92.14;99666.06;103448;1318;22568;-88
2021/12/15 12:33:10;;;;;;;123.90;45.40;;;;;;;3.97;92.11;99667.71;103256;1319;138881;-87
2021/12/15 12:35:53;;;;;;;131.50;42.90;;;;;;;4.00;92.14;99664.62;103322;1325;25418;-90
2021/12/15 12:38:27;;;;;;;118.70;44.20;;;;;;;4.01;91.90;99657.14;103441;1318;138187;-88
2021/12/15 12:40:57;;;;;;;118.20;42.80;;;;;;;4.02;92.18;99654.89;103551;1316;22710;-88